sensor_id;sensor_type;location;lat;lon;timestamp;temperature;humidity
52517;DHT22;59374;53.210;5.726;2022-09-03T00:00:21;17.80;87.00
52517;DHT22;59374;53.210;5.726;2022-09-03T00:03:01;17.70;86.80
52517;DHT22;59374;53.210;5.726;2022-09-03T00:05:40;17.60;87.00
52517;DHT22;59374;53.210;5.726;2022-09-03T00:08:22;17.60;87.20
52517;DHT22;59374;53.210;5.726;2022-09-03T00:11:10;17.60;87.00
52517;DHT22;59374;53.210;5.726;2022-09-03T00:13:41;17.50;87.30
52517;DHT22;59374;53.210;5.726;2022-09-03T00:16:11;17.50;87.90
52517;DHT22;59374;53.210;5.726;2022-09-03T00:18:44;17.50;87.20
52517;DHT22;59374;53.210;5.726;2022-09-03T00:21:18;17.50;87.40
52517;DHT22;59374;53.210;5.726;2022-09-03T00:23:47;17.50;87.40
52517;DHT22;59374;53.210;5.726;2022-09-03T00:31:13;17.50;87.20
52517;DHT22;59374;53.210;5.726;2022-09-03T00:33:44;17.50;87.20
52517;DHT22;59374;53.210;5.726;2022-09-03T00:36:20;17.50;87.40
52517;DHT22;59374;53.210;5.726;2022-09-03T00:38:47;17.50;87.50
52517;DHT22;59374;53.210;5.726;2022-09-03T00:41:29;17.40;87.30
52517;DHT22;59374;53.210;5.726;2022-09-03T00:47:38;17.40;87.80
52517;DHT22;59374;53.210;5.726;2022-09-03T00:58:54;17.30;87.80
52517;DHT22;59374;53.210;5.726;2022-09-03T01:01:21;17.30;88.00
52517;DHT22;59374;53.210;5.726;2022-09-03T01:06:39;17.20;87.80
52517;DHT22;59374;53.210;5.726;2022-09-03T01:09:28;17.20;87.90
52517;DHT22;59374;53.210;5.726;2022-09-03T01:14:59;17.10;88.20
52517;DHT22;59374;53.210;5.726;2022-09-03T01:20:07;17.10;88.70
52517;DHT22;59374;53.210;5.726;2022-09-03T01:25:51;17.00;88.90
52517;DHT22;59374;53.210;5.726;2022-09-03T01:42:01;16.90;89.00
52517;DHT22;59374;53.210;5.726;2022-09-03T01:50:45;16.80;89.60
52517;DHT22;59374;53.210;5.726;2022-09-03T01:59:32;16.70;90.00
52517;DHT22;59374;53.210;5.726;2022-09-03T02:02:06;16.70;89.80
52517;DHT22;59374;53.210;5.726;2022-09-03T02:04:33;16.70;89.70
52517;DHT22;59374;53.210;5.726;2022-09-03T02:07:00;16.70;89.80
52517;DHT22;59374;53.210;5.726;2022-09-03T02:09:27;16.70;89.70
52517;DHT22;59374;53.210;5.726;2022-09-03T02:12:19;16.70;89.80
52517;DHT22;59374;53.210;5.726;2022-09-03T02:14:46;16.70;90.10
52517;DHT22;59374;53.210;5.726;2022-09-03T02:17:11;16.70;89.90
52517;DHT22;59374;53.210;5.726;2022-09-03T02:19:38;16.70;90.00
52517;DHT22;59374;53.210;5.726;2022-09-03T02:22:04;16.70;90.00
52517;DHT22;59374;53.210;5.726;2022-09-03T02:24:30;16.70;90.10
52517;DHT22;59374;53.210;5.726;2022-09-03T02:26:56;16.70;90.00
52517;DHT22;59374;53.210;5.726;2022-09-03T02:29:23;16.70;90.10
52517;DHT22;59374;53.210;5.726;2022-09-03T02:31:48;16.70;90.10
52517;DHT22;59374;53.210;5.726;2022-09-03T02:34:14;16.70;90.10
52517;DHT22;59374;53.210;5.726;2022-09-03T02:36:43;16.70;90.20
52517;DHT22;59374;53.210;5.726;2022-09-03T02:39:14;16.60;90.20
52517;DHT22;59374;53.210;5.726;2022-09-03T02:41:40;16.60;90.20
52517;DHT22;59374;53.210;5.726;2022-09-03T02:46:44;16.60;90.30
52517;DHT22;59374;53.210;5.726;2022-09-03T02:49:11;16.60;90.40
52517;DHT22;59374;53.210;5.726;2022-09-03T02:51:40;16.50;90.40
52517;DHT22;59374;53.210;5.726;2022-09-03T02:54:06;16.50;90.40
52517;DHT22;59374;53.210;5.726;2022-09-03T02:56:32;16.50;90.40
52517;DHT22;59374;53.210;5.726;2022-09-03T02:58:58;16.50;90.50
52517;DHT22;59374;53.210;5.726;2022-09-03T03:01:24;16.40;90.50
52517;DHT22;59374;53.210;5.726;2022-09-03T03:03:50;16.40;90.50
52517;DHT22;59374;53.210;5.726;2022-09-03T03:06:16;16.40;90.70
52517;DHT22;59374;53.210;5.726;2022-09-03T03:08:45;16.40;90.70
52517;DHT22;59374;53.210;5.726;2022-09-03T03:11:11;16.40;90.80
52517;DHT22;59374;53.210;5.726;2022-09-03T03:13:37;16.40;90.80
52517;DHT22;59374;53.210;5.726;2022-09-03T03:16:04;16.30;90.90
52517;DHT22;59374;53.210;5.726;2022-09-03T03:18:33;16.30;90.90
52517;DHT22;59374;53.210;5.726;2022-09-03T03:21:04;16.30;90.90
52517;DHT22;59374;53.210;5.726;2022-09-03T03:23:31;16.30;91.00
52517;DHT22;59374;53.210;5.726;2022-09-03T03:26:01;16.30;90.90
52517;DHT22;59374;53.210;5.726;2022-09-03T03:28:27;16.30;90.90
52517;DHT22;59374;53.210;5.726;2022-09-03T03:30:52;16.30;91.00
52517;DHT22;59374;53.210;5.726;2022-09-03T03:33:18;16.20;91.00
52517;DHT22;59374;53.210;5.726;2022-09-03T03:35:45;16.20;91.00
52517;DHT22;59374;53.210;5.726;2022-09-03T03:38:11;16.20;91.20
52517;DHT22;59374;53.210;5.726;2022-09-03T03:40:37;16.20;91.10
52517;DHT22;59374;53.210;5.726;2022-09-03T03:43:03;16.20;91.20
52517;DHT22;59374;53.210;5.726;2022-09-03T03:45:28;16.20;91.20
52517;DHT22;59374;53.210;5.726;2022-09-03T03:47:58;16.20;91.30
52517;DHT22;59374;53.210;5.726;2022-09-03T03:50:24;16.20;91.50
52517;DHT22;59374;53.210;5.726;2022-09-03T03:52:50;16.20;91.40
52517;DHT22;59374;53.210;5.726;2022-09-03T03:55:15;16.20;91.40
52517;DHT22;59374;53.210;5.726;2022-09-03T03:57:41;16.20;91.40
52517;DHT22;59374;53.210;5.726;2022-09-03T04:00:07;16.20;91.50
52517;DHT22;59374;53.210;5.726;2022-09-03T04:02:33;16.10;91.40
52517;DHT22;59374;53.210;5.726;2022-09-03T04:04:58;16.10;91.40
52517;DHT22;59374;53.210;5.726;2022-09-03T04:07:24;16.10;91.50
52517;DHT22;59374;53.210;5.726;2022-09-03T04:09:50;16.20;91.50
52517;DHT22;59374;53.210;5.726;2022-09-03T04:12:16;16.10;91.50
52517;DHT22;59374;53.210;5.726;2022-09-03T04:14:42;16.10;91.50
52517;DHT22;59374;53.210;5.726;2022-09-03T04:17:07;16.10;91.50
52517;DHT22;59374;53.210;5.726;2022-09-03T04:19:33;16.10;91.50
52517;DHT22;59374;53.210;5.726;2022-09-03T04:21:59;16.10;91.60
52517;DHT22;59374;53.210;5.726;2022-09-03T04:24:24;16.10;91.50
52517;DHT22;59374;53.210;5.726;2022-09-03T04:26:51;16.10;91.60
52517;DHT22;59374;53.210;5.726;2022-09-03T04:29:18;16.10;91.60
52517;DHT22;59374;53.210;5.726;2022-09-03T04:31:44;16.10;91.70
52517;DHT22;59374;53.210;5.726;2022-09-03T04:34:29;16.10;91.70
52517;DHT22;59374;53.210;5.726;2022-09-03T04:36:55;16.10;91.80
52517;DHT22;59374;53.210;5.726;2022-09-03T04:39:23;16.10;91.80
52517;DHT22;59374;53.210;5.726;2022-09-03T04:41:49;16.10;91.80
52517;DHT22;59374;53.210;5.726;2022-09-03T04:44:14;16.10;91.80
52517;DHT22;59374;53.210;5.726;2022-09-03T04:46:40;16.10;91.90
52517;DHT22;59374;53.210;5.726;2022-09-03T04:49:06;16.00;92.00
52517;DHT22;59374;53.210;5.726;2022-09-03T04:51:34;16.00;92.00
52517;DHT22;59374;53.210;5.726;2022-09-03T04:54:02;16.00;92.00
52517;DHT22;59374;53.210;5.726;2022-09-03T04:56:33;16.00;92.10
52517;DHT22;59374;53.210;5.726;2022-09-03T04:59:07;16.00;92.10
52517;DHT22;59374;53.210;5.726;2022-09-03T05:01:34;15.90;92.20
52517;DHT22;59374;53.210;5.726;2022-09-03T05:04:00;15.90;92.20
52517;DHT22;59374;53.210;5.726;2022-09-03T05:06:28;16.00;92.30
52517;DHT22;59374;53.210;5.726;2022-09-03T05:08:54;15.90;92.30
52517;DHT22;59374;53.210;5.726;2022-09-03T05:11:21;15.90;92.30
52517;DHT22;59374;53.210;5.726;2022-09-03T05:13:48;15.90;92.50
52517;DHT22;59374;53.210;5.726;2022-09-03T05:16:15;15.90;92.50
52517;DHT22;59374;53.210;5.726;2022-09-03T05:18:41;15.90;92.50
52517;DHT22;59374;53.210;5.726;2022-09-03T05:21:12;15.90;92.60
52517;DHT22;59374;53.210;5.726;2022-09-03T05:23:40;15.90;92.60
52517;DHT22;59374;53.210;5.726;2022-09-03T05:26:12;15.90;92.50
52517;DHT22;59374;53.210;5.726;2022-09-03T05:28:39;15.90;92.60
52517;DHT22;59374;53.210;5.726;2022-09-03T05:31:06;15.90;92.70
52517;DHT22;59374;53.210;5.726;2022-09-03T05:33:37;15.90;92.80
52517;DHT22;59374;53.210;5.726;2022-09-03T05:36:05;15.90;92.90
52517;DHT22;59374;53.210;5.726;2022-09-03T05:38:31;16.00;92.80
52517;DHT22;59374;53.210;5.726;2022-09-03T05:41:01;16.00;92.90
52517;DHT22;59374;53.210;5.726;2022-09-03T05:43:29;16.00;92.80
52517;DHT22;59374;53.210;5.726;2022-09-03T05:48:28;16.00;92.90
52517;DHT22;59374;53.210;5.726;2022-09-03T05:51:10;16.10;93.00
52517;DHT22;59374;53.210;5.726;2022-09-03T05:53:38;16.10;93.00
52517;DHT22;59374;53.210;5.726;2022-09-03T05:56:09;16.10;92.90
52517;DHT22;59374;53.210;5.726;2022-09-03T05:58:40;16.10;93.00
52517;DHT22;59374;53.210;5.726;2022-09-03T06:03:46;16.00;93.10
52517;DHT22;59374;53.210;5.726;2022-09-03T06:06:13;16.10;93.20
52517;DHT22;59374;53.210;5.726;2022-09-03T06:08:40;16.10;93.30
52517;DHT22;59374;53.210;5.726;2022-09-03T06:11:06;16.10;93.30
52517;DHT22;59374;53.210;5.726;2022-09-03T06:13:33;16.10;93.20
52517;DHT22;59374;53.210;5.726;2022-09-03T06:16:01;16.10;93.50
52517;DHT22;59374;53.210;5.726;2022-09-03T06:18:28;16.10;93.40
52517;DHT22;59374;53.210;5.726;2022-09-03T06:21:02;16.10;93.40
52517;DHT22;59374;53.210;5.726;2022-09-03T06:23:28;16.10;93.60
52517;DHT22;59374;53.210;5.726;2022-09-03T06:26:13;16.10;93.60
52517;DHT22;59374;53.210;5.726;2022-09-03T06:28:40;16.10;93.80
52517;DHT22;59374;53.210;5.726;2022-09-03T06:31:09;16.00;93.70
52517;DHT22;59374;53.210;5.726;2022-09-03T06:33:36;16.00;93.80
52517;DHT22;59374;53.210;5.726;2022-09-03T06:36:05;16.00;93.90
52517;DHT22;59374;53.210;5.726;2022-09-03T06:38:32;16.00;94.00
52517;DHT22;59374;53.210;5.726;2022-09-03T06:41:01;16.10;93.90
52517;DHT22;59374;53.210;5.726;2022-09-03T06:43:30;16.10;94.10
52517;DHT22;59374;53.210;5.726;2022-09-03T06:45:57;16.10;94.20
52517;DHT22;59374;53.210;5.726;2022-09-03T06:48:24;16.10;94.10
52517;DHT22;59374;53.210;5.726;2022-09-03T06:53:30;16.20;94.30
52517;DHT22;59374;53.210;5.726;2022-09-03T06:55:59;16.20;94.30
52517;DHT22;59374;53.210;5.726;2022-09-03T06:58:30;16.30;94.40
52517;DHT22;59374;53.210;5.726;2022-09-03T07:01:23;16.30;94.40
52517;DHT22;59374;53.210;5.726;2022-09-03T07:04:01;16.40;94.50
52517;DHT22;59374;53.210;5.726;2022-09-03T07:06:29;16.50;94.20
52517;DHT22;59374;53.210;5.726;2022-09-03T07:08:55;16.50;94.20
52517;DHT22;59374;53.210;5.726;2022-09-03T07:11:23;16.60;94.20
52517;DHT22;59374;53.210;5.726;2022-09-03T07:13:52;16.60;94.30
52517;DHT22;59374;53.210;5.726;2022-09-03T07:16:22;16.70;94.20
52517;DHT22;59374;53.210;5.726;2022-09-03T07:18:49;16.80;94.20
52517;DHT22;59374;53.210;5.726;2022-09-03T07:21:18;16.80;93.90
52517;DHT22;59374;53.210;5.726;2022-09-03T07:23:44;16.90;93.90
52517;DHT22;59374;53.210;5.726;2022-09-03T07:26:21;17.00;94.00
52517;DHT22;59374;53.210;5.726;2022-09-03T07:28:49;17.00;93.90
52517;DHT22;59374;53.210;5.726;2022-09-03T07:31:17;17.10;93.90
52517;DHT22;59374;53.210;5.726;2022-09-03T07:33:45;17.20;93.80
52517;DHT22;59374;53.210;5.726;2022-09-03T07:36:15;17.20;93.70
52517;DHT22;59374;53.210;5.726;2022-09-03T07:38:43;17.30;93.70
52517;DHT22;59374;53.210;5.726;2022-09-03T07:41:10;17.40;93.60
52517;DHT22;59374;53.210;5.726;2022-09-03T07:43:41;17.50;93.50
52517;DHT22;59374;53.210;5.726;2022-09-03T07:46:18;17.50;93.50
52517;DHT22;59374;53.210;5.726;2022-09-03T07:48:53;17.60;93.40
52517;DHT22;59374;53.210;5.726;2022-09-03T07:51:20;17.70;93.30
52517;DHT22;59374;53.210;5.726;2022-09-03T07:53:47;17.80;93.20
52517;DHT22;59374;53.210;5.726;2022-09-03T07:56:14;17.90;92.90
52517;DHT22;59374;53.210;5.726;2022-09-03T07:58:40;17.90;92.90
52517;DHT22;59374;53.210;5.726;2022-09-03T08:01:11;18.00;92.90
52517;DHT22;59374;53.210;5.726;2022-09-03T08:03:38;18.10;92.50
52517;DHT22;59374;53.210;5.726;2022-09-03T08:06:07;18.10;92.30
52517;DHT22;59374;53.210;5.726;2022-09-03T08:08:34;18.20;92.50
52517;DHT22;59374;53.210;5.726;2022-09-03T08:13:33;18.30;92.50
52517;DHT22;59374;53.210;5.726;2022-09-03T08:15:59;18.40;92.40
52517;DHT22;59374;53.210;5.726;2022-09-03T08:18:25;18.60;92.60
52517;DHT22;59374;53.210;5.726;2022-09-03T08:20:51;18.60;92.50
52517;DHT22;59374;53.210;5.726;2022-09-03T08:23:17;18.70;92.40
52517;DHT22;59374;53.210;5.726;2022-09-03T08:25:42;18.80;92.40
52517;DHT22;59374;53.210;5.726;2022-09-03T08:28:08;18.90;92.30
52517;DHT22;59374;53.210;5.726;2022-09-03T08:30:35;19.00;91.90
52517;DHT22;59374;53.210;5.726;2022-09-03T08:33:01;19.10;92.00
52517;DHT22;59374;53.210;5.726;2022-09-03T08:35:29;19.20;92.10
52517;DHT22;59374;53.210;5.726;2022-09-03T08:37:56;19.20;92.10
52517;DHT22;59374;53.210;5.726;2022-09-03T08:40:22;19.30;92.00
52517;DHT22;59374;53.210;5.726;2022-09-03T08:42:57;19.40;91.50
52517;DHT22;59374;53.210;5.726;2022-09-03T08:45:31;19.50;91.90
52517;DHT22;59374;53.210;5.726;2022-09-03T08:48:06;19.60;91.70
52517;DHT22;59374;53.210;5.726;2022-09-03T08:50:37;19.70;91.50
52517;DHT22;59374;53.210;5.726;2022-09-03T08:53:19;19.70;91.40
52517;DHT22;59374;53.210;5.726;2022-09-03T08:55:54;19.80;91.10
52517;DHT22;59374;53.210;5.726;2022-09-03T08:58:25;19.90;90.90
52517;DHT22;59374;53.210;5.726;2022-09-03T09:17:43;20.60;90.50
52517;DHT22;59374;53.210;5.726;2022-09-03T09:22:50;20.80;90.40
52517;DHT22;59374;53.210;5.726;2022-09-03T09:25:19;20.80;90.50
52517;DHT22;59374;53.210;5.726;2022-09-03T09:28:21;21.00;90.50
52517;DHT22;59374;53.210;5.726;2022-09-03T09:30:49;21.10;90.40
52517;DHT22;59374;53.210;5.726;2022-09-03T09:33:16;21.20;90.60
52517;DHT22;59374;53.210;5.726;2022-09-03T09:35:43;21.30;90.40
52517;DHT22;59374;53.210;5.726;2022-09-03T09:38:10;21.50;90.20
52517;DHT22;59374;53.210;5.726;2022-09-03T09:40:39;21.50;89.90
52517;DHT22;59374;53.210;5.726;2022-09-03T09:45:36;21.70;89.90
52517;DHT22;59374;53.210;5.726;2022-09-03T09:48:14;21.80;89.80
52517;DHT22;59374;53.210;5.726;2022-09-03T09:50:40;21.90;89.50
52517;DHT22;59374;53.210;5.726;2022-09-03T09:53:08;22.00;89.50
52517;DHT22;59374;53.210;5.726;2022-09-03T09:55:53;22.10;89.30
52517;DHT22;59374;53.210;5.726;2022-09-03T09:58:24;22.30;88.60
52517;DHT22;59374;53.210;5.726;2022-09-03T10:03:20;22.50;88.20
52517;DHT22;59374;53.210;5.726;2022-09-03T10:06:01;22.60;88.70
52517;DHT22;59374;53.210;5.726;2022-09-03T10:08:47;22.70;88.00
52517;DHT22;59374;53.210;5.726;2022-09-03T10:11:13;22.90;88.50
52517;DHT22;59374;53.210;5.726;2022-09-03T10:13:42;23.00;88.30
52517;DHT22;59374;53.210;5.726;2022-09-03T10:18:52;23.30;86.40
52517;DHT22;59374;53.210;5.726;2022-09-03T10:21:19;23.40;87.10
52517;DHT22;59374;53.210;5.726;2022-09-03T10:26:22;23.50;86.30
52517;DHT22;59374;53.210;5.726;2022-09-03T10:28:56;23.60;86.30
52517;DHT22;59374;53.210;5.726;2022-09-03T10:31:40;23.70;86.30
52517;DHT22;59374;53.210;5.726;2022-09-03T10:34:17;23.80;84.80
52517;DHT22;59374;53.210;5.726;2022-09-03T10:48:10;24.30;83.20
52517;DHT22;59374;53.210;5.726;2022-09-03T10:56:53;24.60;83.00
52517;DHT22;59374;53.210;5.726;2022-09-03T11:04:28;25.00;81.60
52517;DHT22;59374;53.210;5.726;2022-09-03T11:07:00;25.10;83.20
52517;DHT22;59374;53.210;5.726;2022-09-03T11:09:34;25.20;82.80
52517;DHT22;59374;53.210;5.726;2022-09-03T11:12:12;25.30;81.30
52517;DHT22;59374;53.210;5.726;2022-09-03T11:14:52;25.30;81.30
52517;DHT22;59374;53.210;5.726;2022-09-03T11:17:24;25.40;81.40
52517;DHT22;59374;53.210;5.726;2022-09-03T11:20:02;25.40;80.50
52517;DHT22;59374;53.210;5.726;2022-09-03T11:22:31;25.50;80.40
52517;DHT22;59374;53.210;5.726;2022-09-03T11:24:58;25.60;81.10
52517;DHT22;59374;53.210;5.726;2022-09-03T11:27:34;25.80;81.10
52517;DHT22;59374;53.210;5.726;2022-09-03T11:30:05;25.90;80.80
52517;DHT22;59374;53.210;5.726;2022-09-03T11:32:46;25.90;79.20
52517;DHT22;59374;53.210;5.726;2022-09-03T11:38:00;26.00;79.40
52517;DHT22;59374;53.210;5.726;2022-09-03T11:40:34;26.10;79.20
52517;DHT22;59374;53.210;5.726;2022-09-03T11:43:31;26.20;79.30
52517;DHT22;59374;53.210;5.726;2022-09-03T11:46:04;26.30;75.40
52517;DHT22;59374;53.210;5.726;2022-09-03T11:48:42;26.40;75.80
52517;DHT22;59374;53.210;5.726;2022-09-03T11:54:01;26.60;75.30
52517;DHT22;59374;53.210;5.726;2022-09-03T11:56:28;26.80;75.20
52517;DHT22;59374;53.210;5.726;2022-09-03T12:01:43;26.90;74.00
52517;DHT22;59374;53.210;5.726;2022-09-03T12:04:14;26.90;73.30
52517;DHT22;59374;53.210;5.726;2022-09-03T12:07:26;27.10;74.20
52517;DHT22;59374;53.210;5.726;2022-09-03T12:18:07;27.70;71.90
52517;DHT22;59374;53.210;5.726;2022-09-03T12:21:07;28.00;72.80
52517;DHT22;59374;53.210;5.726;2022-09-03T12:26:10;28.30;71.40
52517;DHT22;59374;53.210;5.726;2022-09-03T12:28:41;28.40;72.00
52517;DHT22;59374;53.210;5.726;2022-09-03T12:31:12;28.60;70.70
52517;DHT22;59374;53.210;5.726;2022-09-03T12:36:24;28.80;70.10
52517;DHT22;59374;53.210;5.726;2022-09-03T12:38:50;28.80;70.70
52517;DHT22;59374;53.210;5.726;2022-09-03T12:41:27;28.90;70.40
52517;DHT22;59374;53.210;5.726;2022-09-03T12:43:55;28.90;69.40
52517;DHT22;59374;53.210;5.726;2022-09-03T12:46:26;29.00;69.80
52517;DHT22;59374;53.210;5.726;2022-09-03T12:49:03;29.00;70.20
52517;DHT22;59374;53.210;5.726;2022-09-03T12:51:41;29.10;68.70
52517;DHT22;59374;53.210;5.726;2022-09-03T12:54:10;29.20;68.70
52517;DHT22;59374;53.210;5.726;2022-09-03T12:56:42;29.30;68.20
52517;DHT22;59374;53.210;5.726;2022-09-03T12:59:13;29.30;68.70
52517;DHT22;59374;53.210;5.726;2022-09-03T13:01:51;29.30;67.30
52517;DHT22;59374;53.210;5.726;2022-09-03T13:04:24;29.40;67.70
52517;DHT22;59374;53.210;5.726;2022-09-03T13:07:05;29.50;68.40
52517;DHT22;59374;53.210;5.726;2022-09-03T13:09:35;29.60;67.80
52517;DHT22;59374;53.210;5.726;2022-09-03T13:12:02;29.70;67.50
52517;DHT22;59374;53.210;5.726;2022-09-03T13:14:46;29.80;67.80
52517;DHT22;59374;53.210;5.726;2022-09-03T13:20:10;30.00;65.80
52517;DHT22;59374;53.210;5.726;2022-09-03T13:23:28;30.00;66.80
52517;DHT22;59374;53.210;5.726;2022-09-03T13:31:04;30.10;65.70
52517;DHT22;59374;53.210;5.726;2022-09-03T13:33:39;30.30;65.30
52517;DHT22;59374;53.210;5.726;2022-09-03T13:36:24;30.40;65.50
52517;DHT22;59374;53.210;5.726;2022-09-03T13:39:17;30.60;64.20
52517;DHT22;59374;53.210;5.726;2022-09-03T13:42:01;30.70;64.60
52517;DHT22;59374;53.210;5.726;2022-09-03T13:44:47;30.70;64.50
52517;DHT22;59374;53.210;5.726;2022-09-03T13:47:31;30.80;65.00
52517;DHT22;59374;53.210;5.726;2022-09-03T13:50:07;30.70;63.50
52517;DHT22;59374;53.210;5.726;2022-09-03T13:53:00;30.70;63.70
52517;DHT22;59374;53.210;5.726;2022-09-03T13:55:48;30.90;64.10
52517;DHT22;59374;53.210;5.726;2022-09-03T14:00:53;31.30;63.30
52517;DHT22;59374;53.210;5.726;2022-09-03T14:03:55;31.30;64.20
52517;DHT22;59374;53.210;5.726;2022-09-03T14:06:41;31.60;63.30
52517;DHT22;59374;53.210;5.726;2022-09-03T14:09:23;31.80;63.30
52517;DHT22;59374;53.210;5.726;2022-09-03T14:14:57;32.20;62.70
52517;DHT22;59374;53.210;5.726;2022-09-03T14:20:24;33.00;63.30
52517;DHT22;59374;53.210;5.726;2022-09-03T14:25:57;33.60;62.80
52517;DHT22;59374;53.210;5.726;2022-09-03T14:28:34;34.10;62.60
52517;DHT22;59374;53.210;5.726;2022-09-03T14:34:10;35.10;61.70
52517;DHT22;59374;53.210;5.726;2022-09-03T14:47:52;36.50;60.10
52517;DHT22;59374;53.210;5.726;2022-09-03T14:50:43;36.80;58.20
52517;DHT22;59374;53.210;5.726;2022-09-03T15:01:27;37.40;58.10
52517;DHT22;59374;53.210;5.726;2022-09-03T15:07:31;37.60;56.70
52517;DHT22;59374;53.210;5.726;2022-09-03T15:10:25;37.90;55.50
52517;DHT22;59374;53.210;5.726;2022-09-03T15:13:10;38.20;56.50
52517;DHT22;59374;53.210;5.726;2022-09-03T15:21:22;38.90;54.30
52517;DHT22;59374;53.210;5.726;2022-09-03T15:36:50;39.60;54.40
52517;DHT22;59374;53.210;5.726;2022-09-03T15:39:34;39.80;54.70
52517;DHT22;59374;53.210;5.726;2022-09-03T15:42:06;40.10;54.20
52517;DHT22;59374;53.210;5.726;2022-09-03T15:44:59;40.20;53.50
52517;DHT22;59374;53.210;5.726;2022-09-03T15:50:32;39.60;53.50
52517;DHT22;59374;53.210;5.726;2022-09-03T15:53:03;39.30;52.30
52517;DHT22;59374;53.210;5.726;2022-09-03T15:55:37;39.00;53.00
52517;DHT22;59374;53.210;5.726;2022-09-03T15:58:25;39.00;53.10
52517;DHT22;59374;53.210;5.726;2022-09-03T16:01:02;39.20;52.70
52517;DHT22;59374;53.210;5.726;2022-09-03T16:03:42;39.30;52.60
52517;DHT22;59374;53.210;5.726;2022-09-03T16:08:53;39.70;52.60
52517;DHT22;59374;53.210;5.726;2022-09-03T16:14:11;39.40;51.50
52517;DHT22;59374;53.210;5.726;2022-09-03T16:17:06;39.40;51.90
52517;DHT22;59374;53.210;5.726;2022-09-03T16:19:48;39.30;52.40
52517;DHT22;59374;53.210;5.726;2022-09-03T16:22:25;39.10;52.10
52517;DHT22;59374;53.210;5.726;2022-09-03T16:25:10;38.60;51.50
52517;DHT22;59374;53.210;5.726;2022-09-03T16:30:13;37.90;51.80
52517;DHT22;59374;53.210;5.726;2022-09-03T16:32:52;37.70;51.70
52517;DHT22;59374;53.210;5.726;2022-09-03T16:38:42;37.30;52.10
52517;DHT22;59374;53.210;5.726;2022-09-03T16:41:31;37.60;52.10
52517;DHT22;59374;53.210;5.726;2022-09-03T16:52:15;37.00;52.10
52517;DHT22;59374;53.210;5.726;2022-09-03T16:54:56;37.00;51.90
52517;DHT22;59374;53.210;5.726;2022-09-03T16:57:35;37.00;52.00
52517;DHT22;59374;53.210;5.726;2022-09-03T17:02:56;36.80;51.70
52517;DHT22;59374;53.210;5.726;2022-09-03T17:05:43;36.50;52.20
52517;DHT22;59374;53.210;5.726;2022-09-03T17:14:33;35.40;52.20
52517;DHT22;59374;53.210;5.726;2022-09-03T17:28:56;30.50;56.40
52517;DHT22;59374;53.210;5.726;2022-09-03T17:31:48;29.50;58.10
52517;DHT22;59374;53.210;5.726;2022-09-03T17:42:25;26.40;59.10
52517;DHT22;59374;53.210;5.726;2022-09-03T17:48:06;25.50;61.60
52517;DHT22;59374;53.210;5.726;2022-09-03T17:51:00;25.10;63.30
52517;DHT22;59374;53.210;5.726;2022-09-03T17:53:47;24.70;64.20
52517;DHT22;59374;53.210;5.726;2022-09-03T17:56:29;24.30;65.80
52517;DHT22;59374;53.210;5.726;2022-09-03T18:02:23;23.70;67.20
52517;DHT22;59374;53.210;5.726;2022-09-03T18:04:53;23.40;68.20
52517;DHT22;59374;53.210;5.726;2022-09-03T18:07:31;23.10;66.30
52517;DHT22;59374;53.210;5.726;2022-09-03T18:15:21;22.50;69.90
52517;DHT22;59374;53.210;5.726;2022-09-03T18:17:57;22.20;69.60
52517;DHT22;59374;53.210;5.726;2022-09-03T18:20:24;22.10;70.10
52517;DHT22;59374;53.210;5.726;2022-09-03T18:23:27;21.80;71.50
52517;DHT22;59374;53.210;5.726;2022-09-03T18:26:19;21.60;74.50
52517;DHT22;59374;53.210;5.726;2022-09-03T18:32:24;21.10;73.40
52517;DHT22;59374;53.210;5.726;2022-09-03T18:35:10;20.90;73.30
52517;DHT22;59374;53.210;5.726;2022-09-03T18:37:54;20.70;75.30
52517;DHT22;59374;53.210;5.726;2022-09-03T18:40:49;20.60;75.40
52517;DHT22;59374;53.210;5.726;2022-09-03T18:43:59;20.40;77.20
52517;DHT22;59374;53.210;5.726;2022-09-03T18:47:06;20.20;78.10
52517;DHT22;59374;53.210;5.726;2022-09-03T18:50:25;20.00;79.00
52517;DHT22;59374;53.210;5.726;2022-09-03T18:56:39;19.70;81.70
52517;DHT22;59374;53.210;5.726;2022-09-03T19:06:29;19.30;86.20
52517;DHT22;59374;53.210;5.726;2022-09-03T19:12:30;19.00;86.70
52517;DHT22;59374;53.210;5.726;2022-09-03T19:15:22;18.90;90.00
52517;DHT22;59374;53.210;5.726;2022-09-03T19:24:13;18.60;92.00
52517;DHT22;59374;53.210;5.726;2022-09-03T19:39:19;18.10;93.80
52517;DHT22;59374;53.210;5.726;2022-09-03T19:51:20;17.90;95.40
52517;DHT22;59374;53.210;5.726;2022-09-03T19:54:06;17.90;94.80
52517;DHT22;59374;53.210;5.726;2022-09-03T19:56:53;17.80;94.70
52517;DHT22;59374;53.210;5.726;2022-09-03T19:59:41;17.80;95.30
52517;DHT22;59374;53.210;5.726;2022-09-03T20:02:26;17.80;95.10
52517;DHT22;59374;53.210;5.726;2022-09-03T20:05:16;17.70;96.40
52517;DHT22;59374;53.210;5.726;2022-09-03T20:08:01;17.60;95.00
52517;DHT22;59374;53.210;5.726;2022-09-03T20:10:49;17.60;94.80
52517;DHT22;59374;53.210;5.726;2022-09-03T20:13:18;17.60;95.00
52517;DHT22;59374;53.210;5.726;2022-09-03T20:18:54;17.50;94.80
52517;DHT22;59374;53.210;5.726;2022-09-03T20:21:38;17.60;95.10
52517;DHT22;59374;53.210;5.726;2022-09-03T20:43:19;17.30;95.10
52517;DHT22;59374;53.210;5.726;2022-09-03T20:51:10;17.20;95.30
52517;DHT22;59374;53.210;5.726;2022-09-03T20:54:03;17.20;95.20
52517;DHT22;59374;53.210;5.726;2022-09-03T20:57:06;17.20;95.30
52517;DHT22;59374;53.210;5.726;2022-09-03T20:59:52;17.10;95.20
52517;DHT22;59374;53.210;5.726;2022-09-03T21:02:36;17.10;95.10
52517;DHT22;59374;53.210;5.726;2022-09-03T21:05:24;17.10;95.00
52517;DHT22;59374;53.210;5.726;2022-09-03T21:08:33;17.00;95.00
52517;DHT22;59374;53.210;5.726;2022-09-03T21:14:06;17.00;95.60
52517;DHT22;59374;53.210;5.726;2022-09-03T21:17:09;17.00;95.40
52517;DHT22;59374;53.210;5.726;2022-09-03T21:22:38;16.90;95.20
52517;DHT22;59374;53.210;5.726;2022-09-03T21:25:10;16.90;95.30
52517;DHT22;59374;53.210;5.726;2022-09-03T21:27:58;16.90;95.40
52517;DHT22;59374;53.210;5.726;2022-09-03T21:30:26;16.90;95.30
52517;DHT22;59374;53.210;5.726;2022-09-03T21:33:01;16.90;95.30
52517;DHT22;59374;53.210;5.726;2022-09-03T21:35:34;16.90;95.10
52517;DHT22;59374;53.210;5.726;2022-09-03T21:38:06;16.90;95.10
52517;DHT22;59374;53.210;5.726;2022-09-03T21:40:34;16.90;94.90
52517;DHT22;59374;53.210;5.726;2022-09-03T21:45:33;17.00;94.90
52517;DHT22;59374;53.210;5.726;2022-09-03T21:48:12;17.00;94.70
52517;DHT22;59374;53.210;5.726;2022-09-03T21:51:00;17.10;94.60
52517;DHT22;59374;53.210;5.726;2022-09-03T21:53:34;17.10;94.60
52517;DHT22;59374;53.210;5.726;2022-09-03T22:01:13;17.10;94.30
52517;DHT22;59374;53.210;5.726;2022-09-03T22:03:41;17.10;94.20
52517;DHT22;59374;53.210;5.726;2022-09-03T22:06:21;17.10;94.10